createdAt,value
2022-10-02T00:01:55.749Z,5.20
2022-10-02T00:07:03.550Z,5.07
2022-10-02T00:12:09.340Z,4.72
2022-10-02T00:17:38.330Z,4.43
2022-10-02T00:22:49.593Z,3.78
2022-10-02T00:28:14.220Z,4.22
2022-10-02T00:33:38.724Z,4.55
2022-10-02T00:38:52.046Z,4.45
2022-10-02T00:43:57.432Z,3.83
2022-10-02T00:49:19.430Z,3.72
2022-10-02T00:54:46.383Z,4.07
2022-10-02T01:00:10.483Z,3.85
2022-10-02T01:05:13.644Z,4.10
2022-10-02T01:10:16.391Z,3.90
2022-10-02T01:15:28.395Z,3.47
2022-10-02T01:20:38.532Z,3.60
2022-10-02T01:25:41.112Z,3.40
2022-10-02T01:30:47.792Z,3.20
2022-10-02T01:35:50.263Z,4.18
2022-10-02T01:40:52.776Z,3.55
2022-10-02T01:46:14.030Z,3.25
2022-10-02T01:51:35.710Z,3.70
2022-10-02T01:56:51.131Z,3.88
2022-10-02T02:02:16.782Z,3.30
2022-10-02T02:07:35.868Z,3.55
2022-10-02T02:12:49.955Z,3.20
2022-10-02T02:17:55.046Z,3.30
2022-10-02T02:23:06.475Z,3.13
2022-10-02T02:28:12.587Z,3.10
2022-10-02T02:33:19.404Z,3.20
2022-10-02T02:38:36.444Z,2.38
2022-10-02T02:43:57.569Z,3.28
2022-10-02T02:49:11.866Z,2.80
2022-10-02T02:54:20.452Z,3.42
2022-10-02T02:59:27.035Z,2.73
2022-10-02T03:04:29.485Z,3.05
2022-10-02T03:09:33.620Z,2.80
2022-10-02T03:14:42.102Z,2.60
2022-10-02T03:19:51.544Z,2.50
2022-10-02T03:25:22.836Z,3.05
2022-10-02T03:30:26.227Z,2.15
2022-10-02T03:35:30.293Z,2.28
2022-10-02T03:40:32.904Z,2.37
2022-10-02T03:45:52.027Z,2.53
2022-10-02T03:50:54.719Z,2.22
2022-10-02T03:56:10.176Z,2.50
2022-10-02T04:01:19.965Z,2.53
2022-10-02T04:06:29.441Z,2.37
2022-10-02T04:11:47.130Z,2.63
2022-10-02T04:16:57.857Z,3.03
2022-10-02T04:22:07.626Z,2.50
2022-10-02T04:27:20.878Z,2.03
2022-10-02T04:32:27.258Z,2.60
2022-10-02T04:37:39.169Z,2.27
2022-10-02T04:43:01.548Z,2.53
2022-10-02T04:48:47.910Z,2.60
2022-10-02T04:54:27.932Z,3.13
2022-10-02T04:59:45.252Z,2.57
2022-10-02T05:05:06.129Z,2.93
2022-10-02T05:10:44.910Z,2.67
2022-10-02T05:15:56.328Z,2.22
2022-10-02T05:21:17.744Z,2.30
2022-10-02T05:26:31.703Z,2.58
2022-10-02T05:32:22.602Z,2.33
2022-10-02T05:37:52.777Z,2.70
2022-10-02T05:43:08.469Z,1.97
2022-10-02T05:48:37.529Z,2.37
2022-10-02T05:53:57.535Z,2.70
2022-10-02T05:59:02.661Z,2.53
2022-10-02T06:04:44.163Z,2.47
2022-10-02T06:10:01.008Z,2.70
2022-10-02T06:15:17.202Z,2.87
2022-10-02T06:20:22.178Z,2.60
2022-10-02T06:25:30.716Z,2.40
2022-10-02T06:30:37.513Z,2.73
2022-10-02T06:35:53.581Z,2.53
2022-10-02T06:41:09.282Z,2.57
2022-10-02T06:46:22.952Z,2.83
2022-10-02T06:51:52.443Z,2.53
2022-10-02T06:57:10.702Z,2.43
2022-10-02T07:02:32.725Z,2.40
2022-10-02T07:08:10.362Z,2.23
2022-10-02T07:13:12.809Z,2.70
2022-10-02T07:18:33.693Z,2.30
2022-10-02T07:23:42.215Z,2.23
2022-10-02T07:29:20.103Z,3.13
2022-10-02T07:34:37.801Z,2.63
2022-10-02T07:39:45.971Z,2.50
2022-10-02T07:45:03.368Z,2.60
2022-10-02T07:50:47.848Z,2.97
2022-10-02T07:55:53.800Z,2.50
2022-10-02T08:01:02.385Z,2.40
2022-10-02T08:06:06.559Z,2.63
2022-10-02T08:11:21.363Z,2.50
2022-10-02T08:16:27.537Z,2.40
2022-10-02T08:21:34.275Z,2.47
2022-10-02T08:26:57.845Z,2.63
2022-10-02T08:32:00.798Z,3.20
2022-10-02T08:37:18.239Z,3.40
2022-10-02T08:42:40.085Z,2.57
2022-10-02T08:47:59.875Z,2.90
2022-10-02T08:53:02.299Z,2.30
2022-10-02T08:58:23.204Z,3.10
2022-10-02T09:04:26.051Z,3.27
2022-10-02T09:09:44.500Z,3.00
2022-10-02T09:14:53.535Z,2.73
2022-10-02T09:20:34.909Z,2.77
2022-10-02T09:26:16.162Z,2.83
2022-10-02T09:32:06.928Z,3.13
2022-10-02T09:37:30.772Z,2.80
2022-10-02T09:43:00.302Z,2.60
2022-10-02T09:48:43.234Z,2.47
2022-10-02T09:54:27.058Z,2.77
2022-10-02T09:59:47.175Z,2.53
2022-10-02T10:05:05.205Z,2.80
2022-10-02T10:10:40.896Z,2.90
2022-10-02T10:16:11.669Z,2.37
2022-10-02T10:21:59.194Z,1.67
2022-10-02T10:27:07.959Z,2.30
2022-10-02T10:32:49.505Z,2.77
2022-10-02T10:38:14.351Z,2.43
2022-10-02T10:44:03.342Z,1.97
2022-10-02T10:49:42.968Z,2.50
2022-10-02T10:55:13.211Z,2.93
2022-10-02T11:00:21.646Z,2.50
2022-10-02T11:05:54.846Z,2.83
2022-10-02T11:11:09.348Z,2.20
2022-10-02T11:20:37.143Z,2.37
2022-10-02T11:25:59.554Z,2.33
2022-10-02T11:31:23.303Z,3.37
2022-10-02T11:37:01.029Z,2.20
2022-10-02T11:42:23.659Z,1.77
2022-10-02T11:48:00.132Z,2.40
2022-10-02T11:53:25.218Z,1.60
2022-10-02T11:58:27.605Z,2.07
2022-10-02T12:03:39.568Z,2.10
2022-10-02T12:09:07.968Z,1.90
2022-10-02T12:14:32.680Z,2.45
2022-10-02T12:20:07.293Z,1.57
2022-10-02T12:25:42.803Z,1.60
2022-10-02T12:42:14.408Z,2.35
2022-10-02T12:47:36.034Z,2.45
2022-10-02T13:15:37.460Z,2.90
2022-10-02T13:20:51.688Z,3.60
2022-10-02T13:32:31.566Z,3.17
2022-10-02T13:38:09.590Z,3.83
2022-10-02T13:43:33.283Z,2.93
2022-10-02T14:12:21.517Z,2.90
2022-10-02T14:17:49.949Z,2.63
2022-10-02T14:23:14.231Z,2.67
2022-10-02T14:28:34.886Z,3.00
2022-10-02T14:34:26.324Z,2.80
2022-10-02T14:39:44.943Z,2.37
2022-10-02T14:45:16.711Z,2.23
2022-10-02T15:01:49.236Z,2.13
2022-10-02T15:07:15.408Z,1.90
2022-10-02T15:12:37.766Z,2.00
2022-10-02T15:18:40.888Z,2.77
2022-10-02T15:23:50.590Z,1.57
2022-10-02T15:29:24.319Z,1.63
2022-10-02T15:34:43.778Z,1.80
2022-10-02T15:40:24.870Z,1.53
2022-10-02T15:45:48.577Z,1.10
2022-10-02T15:50:54.431Z,3.13
2022-10-02T15:56:24.194Z,2.40
2022-10-02T16:01:49.373Z,2.57
2022-10-02T16:07:27.890Z,2.60
2022-10-02T16:12:33.354Z,3.00
2022-10-02T16:17:38.972Z,3.10
2022-10-02T16:23:20.422Z,2.20
2022-10-02T16:28:54.852Z,1.40
2022-10-02T16:34:20.491Z,2.43
2022-10-02T16:39:39.885Z,1.63
2022-10-02T16:44:58.141Z,1.63
2022-10-02T16:50:17.877Z,1.80
2022-10-02T16:55:32.512Z,2.00
2022-10-02T17:00:50.968Z,1.97
2022-10-02T17:06:07.630Z,2.13
2022-10-02T17:11:45.964Z,2.03
2022-10-02T17:16:55.899Z,2.03
2022-10-02T17:22:11.827Z,2.87
2022-10-02T17:27:35.704Z,5.23
2022-10-02T17:32:50.293Z,5.30
2022-10-02T17:38:00.429Z,5.53
2022-10-02T17:43:24.743Z,5.73
2022-10-02T17:48:27.249Z,11.60
2022-10-02T17:54:11.426Z,5.20
2022-10-02T17:59:28.164Z,4.77
2022-10-02T18:05:08.300Z,6.93
2022-10-02T18:10:27.166Z,6.63
2022-10-02T18:15:38.156Z,4.30
2022-10-02T18:20:57.459Z,7.53
2022-10-02T18:26:30.479Z,4.77
2022-10-02T18:31:54.714Z,4.17
2022-10-02T18:37:48.404Z,2.70
2022-10-02T18:43:20.121Z,3.20
2022-10-02T18:54:49.401Z,2.90
2022-10-02T19:00:10.650Z,3.50
2022-10-02T19:11:59.025Z,3.20
2022-10-02T19:23:02.032Z,2.93
2022-10-02T19:28:05.458Z,3.57
